Time;durP1;ratioP1;P1;durP2;ratioP2;P2;SDS_P1;SDS_P2;PMS_P1;PMS_P2;Temp;Humidity;BMP_temperature;BMP_pressure;BME280_temperature;BME280_humidity;BME280_pressure;Samples;Min_cycle;Max_cycle;Signal;HPM_P1;HPM_P2
2023/03/05 00:02:19;;;;;;;72.20;38.47;;;2.80;73.70;;;;;;5054546;28;20534;-17
2023/03/05 00:04:45;;;;;;;59.58;32.33;;;2.70;74.10;;;;;;5054094;28;20056;-16
2023/03/05 00:07:13;;;;;;;57.72;32.42;;;2.70;73.70;;;;;;5054214;28;20028;-18
2023/03/05 00:09:39;;;;;;;79.25;41.13;;;2.60;73.90;;;;;;5054566;28;20028;-16
2023/03/05 00:12:06;;;;;;;74.38;37.22;;;2.60;74.00;;;;;;5054446;28;20022;-17
2023/03/05 00:14:32;;;;;;;79.82;40.15;;;2.60;73.50;;;;;;5054415;28;20068;-17
2023/03/05 00:16:58;;;;;;;94.65;44.55;;;2.50;73.50;;;;;;5053912;28;20447;-19
2023/03/05 00:19:24;;;;;;;75.60;38.78;;;2.50;73.60;;;;;;5054248;28;20128;-16
2023/03/05 00:21:49;;;;;;;98.70;49.83;;;2.40;74.10;;;;;;5054195;28;20040;-19
2023/03/05 00:24:17;;;;;;;75.18;39.88;;;2.40;74.50;;;;;;5054533;28;20218;-17
2023/03/05 00:26:44;;;;;;;67.35;35.10;;;2.40;74.60;;;;;;5035778;28;20021;-18
2023/03/05 00:29:17;;;;;;;80.72;38.97;;;2.40;74.20;;;;;;5054086;28;20128;-17
2023/03/05 00:31:43;;;;;;;68.65;36.65;;;2.30;73.70;;;;;;5053823;28;20373;-18
2023/03/05 00:34:13;;;;;;;60.88;32.80;;;2.40;73.70;;;;;;5053999;28;20549;-18
2023/03/05 00:39:09;;;;;;;57.75;33.58;;;2.40;74.00;;;;;;5050647;28;20056;-22
2023/03/05 00:41:35;;;;;;;64.78;37.83;;;2.30;73.70;;;;;;5053701;28;20123;-23
2023/03/05 00:44:00;;;;;;;95.07;47.40;;;2.30;74.30;;;;;;5052935;28;20119;-21
2023/03/05 00:46:27;;;;;;;100.45;49.45;;;2.20;74.60;;;;;;5053571;28;20025;-21
2023/03/05 00:48:56;;;;;;;86.63;44.83;;;2.20;74.70;;;;;;5053156;28;20036;-22
2023/03/05 00:51:23;;;;;;;82.80;39.78;;;2.10;74.60;;;;;;5053747;28;20063;-19
2023/03/05 00:53:49;;;;;;;72.32;37.17;;;2.10;74.70;;;;;;5053454;28;20033;-22
2023/03/05 00:56:15;;;;;;;77.68;40.33;;;2.00;74.80;;;;;;5053264;28;20357;-21
2023/03/05 00:58:41;;;;;;;68.18;36.20;;;2.00;75.00;;;;;;5053174;28;20468;-22
2023/03/05 01:01:07;;;;;;;65.28;34.50;;;1.90;75.30;;;;;;5053321;28;20435;-22
2023/03/05 01:03:34;;;;;;;64.50;34.10;;;1.90;75.20;;;;;;5053334;28;20029;-21
2023/03/05 01:06:04;;;;;;;57.88;31.55;;;1.80;75.00;;;;;;5053335;28;20029;-22
2023/03/05 01:08:30;;;;;;;68.30;34.92;;;1.80;75.10;;;;;;5053325;28;20338;-20
2023/03/05 01:10:56;;;;;;;77.47;38.00;;;1.80;75.00;;;;;;5110584;22;20479;-18
2023/03/05 01:13:22;;;;;;;70.55;37.17;;;1.70;74.80;;;;;;5072153;28;20033;-17
2023/03/05 01:15:49;;;;;;;63.58;33.50;;;1.60;75.10;;;;;;5072930;28;20131;-17
2023/03/05 01:18:16;;;;;;;65.30;35.30;;;1.60;75.30;;;;;;5072875;28;20488;-17
2023/03/05 01:20:43;;;;;;;62.40;34.60;;;1.60;75.10;;;;;;5072661;28;20039;-18
2023/03/05 01:23:09;;;;;;;78.43;43.10;;;1.60;75.40;;;;;;5072987;28;20028;-18
2023/03/05 01:25:35;;;;;;;78.57;41.40;;;1.60;75.20;;;;;;5072956;28;20025;-17
2023/03/05 01:28:01;;;;;;;91.72;47.40;;;1.50;75.00;;;;;;5072602;28;20020;-17
2023/03/05 01:30:27;;;;;;;94.30;48.00;;;1.40;75.30;;;;;;5072795;28;20066;-17
2023/03/05 01:32:54;;;;;;;65.32;34.47;;;1.40;75.60;;;;;;5072405;28;20029;-19
2023/03/05 01:35:22;;;;;;;71.38;37.78;;;1.40;75.80;;;;;;5072927;28;20025;-17
2023/03/05 01:37:49;;;;;;;79.55;43.22;;;1.40;75.80;;;;;;5072923;28;20020;-17
2023/03/05 01:40:18;;;;;;;73.38;36.60;;;1.40;75.80;;;;;;5072682;28;20436;-17
2023/03/05 01:42:46;;;;;;;71.80;36.13;;;1.40;75.90;;;;;;5054237;28;20024;-19
2023/03/05 01:45:16;;;;;;;63.00;33.45;;;1.30;76.20;;;;;;5072554;28;20036;-18
2023/03/05 01:47:42;;;;;;;69.72;34.70;;;1.30;75.70;;;;;;5072857;28;20088;-17
2023/03/05 01:50:15;;;;;;;63.85;32.80;;;1.20;75.80;;;;;;5072599;28;20021;-18
2023/03/05 01:52:47;;;;;;;79.10;39.33;;;1.10;76.30;;;;;;5054307;28;20027;-17
2023/03/05 01:55:18;;;;;;;68.18;36.95;;;1.10;76.20;;;;;;5071512;28;20032;-18
2023/03/05 01:57:54;;;;;;;68.95;35.53;;;1.10;76.50;;;;;;5072348;28;20016;-18
2023/03/05 02:00:45;;;;;;;81.35;43.00;;;1.00;76.10;;;;;;5072301;28;20361;-16
2023/03/05 02:03:13;;;;;;;78.43;42.88;;;1.00;75.80;;;;;;5063324;28;20032;-18
2023/03/05 02:05:42;;;;;;;85.57;45.33;;;1.00;75.80;;;;;;5072503;28;20032;-17
2023/03/05 02:08:16;;;;;;;59.35;32.47;;;1.00;75.80;;;;;;5072457;28;20032;-18
2023/03/05 02:10:47;;;;;;;80.07;41.83;;;1.00;76.30;;;;;;5072117;28;20103;-16
2023/03/05 02:13:18;;;;;;;72.97;39.53;;;0.90;76.20;;;;;;5072026;28;20049;-15
2023/03/05 02:15:46;;;;;;;82.70;44.40;;;0.90;76.10;;;;;;5072489;28;20044;-16
2023/03/05 02:18:12;;;;;;;69.40;38.05;;;0.90;76.30;;;;;;5072157;28;20032;-16
2023/03/05 02:20:56;;;;;;;77.13;41.35;;;0.90;76.90;;;;;;5071894;28;20078;-18
2023/03/05 02:23:23;;;;;;;;;;;0.90;78.00;;;;;;5072530;28;20036;-16
2023/03/05 02:25:49;;;;;;;71.47;35.42;;;0.80;79.00;;;;;;5071978;28;19904;-17
2023/03/05 02:28:33;;;;;;;59.58;33.95;;;0.80;77.70;;;;;;5072156;28;20108;-16
2023/03/05 02:30:59;;;;;;;54.95;31.08;;;0.80;77.40;;;;;;5072118;28;20105;-16
2023/03/05 02:33:25;;;;;;;67.53;35.65;;;0.80;77.00;;;;;;5072226;28;20137;-17
2023/03/05 02:35:51;;;;;;;63.40;33.60;;;0.80;77.10;;;;;;5072458;28;20024;-17
2023/03/05 02:38:19;;;;;;;56.17;30.73;;;0.80;77.00;;;;;;5072079;28;20494;-16
2023/03/05 02:40:45;;;;;;;59.45;32.90;;;0.80;76.70;;;;;;5071948;28;20110;-16
2023/03/05 02:43:11;;;;;;;75.13;38.72;;;0.70;76.30;;;;;;5071852;28;20411;-16
2023/03/05 02:45:38;;;;;;;82.25;41.25;;;0.80;76.70;;;;;;5053829;28;20056;-17
2023/03/05 02:48:04;;;;;;;79.45;40.20;;;0.70;77.20;;;;;;5071719;28;20506;-17
2023/03/05 02:50:31;;;;;;;79.78;39.97;;;0.70;77.10;;;;;;5071993;28;20024;-16
2023/03/05 02:52:57;;;;;;;84.32;43.78;;;0.70;76.20;;;;;;5071491;28;20031;-17
2023/03/05 02:55:23;;;;;;;66.95;33.28;;;0.70;76.40;;;;;;5071687;28;20029;-17
2023/03/05 02:57:49;;;;;;;83.72;41.95;;;0.80;76.60;;;;;;5071592;28;20039;-17
2023/03/05 03:00:16;;;;;;;75.18;39.78;;;0.80;77.00;;;;;;5071658;28;20055;-17
2023/03/05 03:02:42;;;;;;;88.40;43.83;;;0.80;76.70;;;;;;5071481;28;20062;-18
2023/03/05 03:05:09;;;;;;;101.07;50.97;;;0.80;76.70;;;;;;5071739;28;20028;-17
2023/03/05 03:07:35;;;;;;;78.43;38.60;;;0.80;77.00;;;;;;5075568;28;20083;-18
2023/03/05 03:10:02;;;;;;;93.07;44.92;;;0.70;77.00;;;;;;5075466;28;20036;-16
2023/03/05 03:12:28;;;;;;;73.55;36.30;;;0.70;77.10;;;;;;5075183;28;20060;-18
2023/03/05 03:14:54;;;;;;;62.88;33.92;;;0.70;76.80;;;;;;5075109;28;20096;-17
2023/03/05 03:17:20;;;;;;;72.88;36.53;;;0.70;77.00;;;;;;5075493;28;20032;-17
2023/03/05 03:19:46;;;;;;;76.75;39.30;;;0.70;76.60;;;;;;5075148;28;20037;-16
2023/03/05 03:22:14;;;;;;;59.45;31.60;;;0.60;76.80;;;;;;5075634;28;20422;-17
2023/03/05 03:24:42;;;;;;;53.40;31.25;;;0.60;76.20;;;;;;5074950;28;20028;-17
2023/03/05 03:27:08;;;;;;;68.32;35.47;;;0.60;76.20;;;;;;5075307;28;20074;-17
2023/03/05 03:29:34;;;;;;;66.80;35.58;;;0.60;76.40;;;;;;5075121;28;20029;-17
2023/03/05 03:32:00;;;;;;;65.72;36.72;;;0.60;75.90;;;;;;5075132;28;20091;-16
2023/03/05 03:34:26;;;;;;;61.00;34.78;;;0.60;76.60;;;;;;5074875;28;20064;-16
2023/03/05 03:36:53;;;;;;;59.47;32.83;;;0.60;76.70;;;;;;5074695;28;20028;-15
2023/03/05 03:39:20;;;;;;;72.93;38.17;;;0.60;76.20;;;;;;5074834;28;20124;-17
2023/03/05 03:41:48;;;;;;;73.38;39.55;;;0.50;76.40;;;;;;5074694;28;20028;-17
2023/03/05 03:44:16;;;;;;;83.82;45.75;;;0.50;76.20;;;;;;5075034;28;20055;-16
2023/03/05 03:46:47;;;;;;;93.28;46.05;;;0.50;76.10;;;;;;5074307;28;20036;-17
2023/03/05 03:49:19;;;;;;;86.03;46.60;;;0.50;76.20;;;;;;5074669;28;20033;-17
2023/03/05 03:51:46;;;;;;;88.10;46.47;;;0.50;76.50;;;;;;5074952;28;20116;-19
2023/03/05 03:54:13;;;;;;;77.05;39.60;;;0.60;76.90;;;;;;5074586;28;20020;-19
2023/03/05 03:56:39;;;;;;;85.72;44.33;;;0.60;76.60;;;;;;5074460;28;20506;-15
2023/03/05 03:59:05;;;;;;;90.70;45.28;;;0.50;76.70;;;;;;5074491;28;20123;-18
2023/03/05 04:01:31;;;;;;;83.70;43.03;;;0.50;76.90;;;;;;5074339;28;20032;-17
2023/03/05 04:03:57;;;;;;;83.03;43.42;;;0.40;76.80;;;;;;5074431;28;20147;-19
2023/03/05 04:06:23;;;;;;;93.47;47.40;;;0.40;76.10;;;;;;5074344;28;20035;-17
2023/03/05 04:08:48;;;;;;;83.60;43.42;;;0.40;76.40;;;;;;5074240;28;20100;-18
2023/03/05 04:11:14;;;;;;;87.00;45.65;;;0.40;76.40;;;;;;5074044;28;20044;-17
2023/03/05 04:13:41;;;;;;;85.13;43.85;;;0.40;76.80;;;;;;5074223;28;20028;-17
2023/03/05 04:16:07;;;;;;;84.18;45.33;;;0.40;77.00;;;;;;5074156;28;20426;-16
2023/03/05 04:18:33;;;;;;;91.82;45.80;;;0.40;76.80;;;;;;5073098;28;20111;-17
2023/03/05 04:20:59;;;;;;;82.80;45.15;;;0.40;76.60;;;;;;5073739;28;20136;-17
2023/03/05 04:23:25;;;;;;;85.93;45.58;;;0.40;76.80;;;;;;5140171;22;20052;-19
2023/03/05 04:25:51;;;;;;;82.93;43.75;;;0.50;76.90;;;;;;5053898;28;20074;-20
2023/03/05 04:28:17;;;;;;;74.90;39.92;;;0.50;77.00;;;;;;5110514;22;20053;-17
2023/03/05 04:30:43;;;;;;;73.63;37.75;;;0.50;77.20;;;;;;5054003;28;20423;-17
2023/03/05 04:33:09;;;;;;;84.80;42.20;;;0.50;77.30;;;;;;5054500;28;20025;-19
2023/03/05 04:35:35;;;;;;;83.93;42.75;;;0.50;77.00;;;;;;5053773;28;20031;-17
2023/03/05 04:38:01;;;;;;;77.70;41.65;;;0.50;77.00;;;;;;5054070;28;20103;-17
2023/03/05 04:40:27;;;;;;;87.30;44.30;;;0.50;77.00;;;;;;5053917;28;20121;-17
2023/03/05 04:42:53;;;;;;;65.30;34.42;;;0.40;77.40;;;;;;5053656;28;20136;-16
2023/03/05 04:45:19;;;;;;;63.72;33.50;;;0.40;77.20;;;;;;5053856;28;20032;-17
2023/03/05 04:47:45;;;;;;;70.20;34.60;;;0.40;77.10;;;;;;5053622;28;20361;-17
2023/03/05 04:50:12;;;;;;;71.80;37.50;;;0.40;77.30;;;;;;5035843;28;20029;-18
2023/03/05 04:55:08;;;;;;;55.70;31.08;;;0.30;77.30;;;;;;5091176;28;20428;-20
2023/03/05 04:57:34;;;;;;;53.40;29.38;;;0.30;77.40;;;;;;5093463;28;20401;-20
2023/03/05 05:00:01;;;;;;;53.35;28.92;;;0.30;76.90;;;;;;5093541;28;20112;-20
2023/03/05 05:02:27;;;;;;;55.22;28.42;;;0.30;76.90;;;;;;5093578;28;20059;-19
2023/03/05 05:04:53;;;;;;;51.60;28.63;;;0.30;76.90;;;;;;5093255;28;20379;-19
2023/03/05 05:07:19;;;;;;;53.78;30.25;;;0.20;77.00;;;;;;5093553;28;20024;-19
2023/03/05 05:09:45;;;;;;;50.88;28.90;;;0.20;77.30;;;;;;5093118;28;20101;-20
2023/03/05 05:12:11;;;;;;;76.03;38.80;;;0.20;77.30;;;;;;5093104;28;20382;-20
2023/03/05 05:14:37;;;;;;;60.20;32.60;;;0.20;77.70;;;;;;5093158;28;20085;-20
2023/03/05 05:17:04;;;;;;;75.40;37.22;;;0.20;77.80;;;;;;5092842;28;20024;-20
2023/03/05 05:19:34;;;;;;;68.93;33.08;;;0.20;77.50;;;;;;5093386;28;20024;-20
2023/03/05 05:22:01;;;;;;;67.60;35.42;;;0.10;77.40;;;;;;5093029;28;20055;-19
2023/03/05 05:24:27;;;;;;;70.97;36.03;;;0.00;77.40;;;;;;5092891;28;20361;-21
2023/03/05 05:26:54;;;;;;;76.72;37.10;;;0.00;77.40;;;;;;5092898;28;20034;-20
2023/03/05 05:29:21;;;;;;;62.80;32.05;;;0.00;77.30;;;;;;5092776;28;20052;-20
2023/03/05 05:31:47;;;;;;;65.72;33.95;;;0.00;77.50;;;;;;5093211;28;20079;-18
2023/03/05 05:34:13;;;;;;;66.93;32.58;;;0.00;77.60;;;;;;5093183;28;20047;-21
2023/03/05 05:36:38;;;;;;;68.07;35.40;;;0.00;77.30;;;;;;5150261;22;20040;-17
2023/03/05 05:39:04;;;;;;;46.60;25.27;;;0.00;78.00;;;;;;5093075;28;20024;-15
2023/03/05 05:41:30;;;;;;;55.90;29.02;;;0.00;77.90;;;;;;5093295;28;20036;-17
2023/03/05 05:43:56;;;;;;;59.85;31.63;;;0.00;78.10;;;;;;5074833;28;20032;-17
2023/03/05 05:46:23;;;;;;;64.25;32.33;;;0.00;77.70;;;;;;5093124;28;20028;-17
2023/03/05 05:48:49;;;;;;;60.22;29.52;;;0.00;77.60;;;;;;5092985;28;20021;-17
2023/03/05 05:51:19;;;;;;;64.93;32.10;;;0.00;77.60;;;;;;5179292;22;20956;-14
2023/03/05 05:53:45;;;;;;;59.45;28.77;;;0.00;77.60;;;;;;5072414;28;20068;-18
2023/03/05 05:56:12;;;;;;;64.13;31.15;;;0.00;77.80;;;;;;5072528;28;20021;-17
2023/03/05 05:58:39;;;;;;;62.40;29.75;;;0.00;78.00;;;;;;5072683;28;20074;-20
2023/03/05 06:01:25;;;;;;;64.85;30.02;;;0.10;77.70;;;;;;5136345;22;20056;-18
2023/03/05 06:03:51;;;;;;;62.95;31.13;;;0.10;77.70;;;;;;5092744;28;20498;-15
2023/03/05 06:06:19;;;;;;;59.03;28.88;;;0.20;78.50;;;;;;5092873;28;20031;-17
2023/03/05 06:08:45;;;;;;;57.63;28.77;;;0.30;78.10;;;;;;5092716;28;20043;-16
2023/03/05 06:11:12;;;;;;;59.85;29.38;;;0.30;77.90;;;;;;5167780;22;20064;-17
2023/03/05 06:13:38;;;;;;;53.47;28.27;;;0.40;77.60;;;;;;5072464;28;20078;-19
2023/03/05 06:16:07;;;;;;;55.33;29.45;;;0.50;77.60;;;;;;5072121;28;20021;-17
2023/03/05 06:18:34;;;;;;;55.17;29.00;;;0.60;77.80;;;;;;5072361;28;20509;-17
2023/03/05 06:21:03;;;;;;;58.85;29.85;;;0.80;77.70;;;;;;5071922;28;20032;-17
2023/03/05 06:23:29;;;;;;;57.83;29.48;;;0.90;78.00;;;;;;5072215;28;20025;-17
2023/03/05 06:28:24;;;;;;;58.83;28.42;;;1.30;78.30;;;;;;5049363;28;19920;-18
2023/03/05 06:30:58;;;;;;;57.83;30.00;;;1.50;78.50;;;;;;5052403;28;20017;-19
2023/03/05 06:33:24;;;;;;;55.13;28.92;;;1.70;78.40;;;;;;5052283;28;20112;-19
2023/03/05 06:35:50;;;;;;;52.33;25.60;;;1.90;78.20;;;;;;5052498;28;20025;-18
2023/03/05 06:38:15;;;;;;;52.28;25.55;;;2.10;78.10;;;;;;5052462;28;20406;-19
2023/03/05 06:40:42;;;;;;;53.45;26.40;;;2.30;78.30;;;;;;5052225;28;20425;-17
2023/03/05 06:43:07;;;;;;;51.25;26.38;;;2.60;78.00;;;;;;5055990;28;20493;-16
2023/03/05 06:45:33;;;;;;;50.17;25.38;;;2.80;77.80;;;;;;5056126;28;20068;-16
2023/03/05 06:47:59;;;;;;;52.15;27.08;;;2.90;77.60;;;;;;5056443;28;20143;-16
2023/03/05 06:50:25;;;;;;;46.78;22.88;;;3.20;77.50;;;;;;5056017;28;20032;-16
2023/03/05 06:52:51;;;;;;;41.67;21.17;;;3.30;77.50;;;;;;5055872;28;20025;-17
2023/03/05 06:55:18;;;;;;;48.15;25.58;;;3.60;77.50;;;;;;5056245;28;20043;-18
2023/03/05 06:57:44;;;;;;;56.13;27.25;;;3.90;77.40;;;;;;5038139;28;20021;-18
2023/03/05 07:00:11;;;;;;;52.92;27.02;;;4.10;77.10;;;;;;5056015;28;20027;-18
2023/03/05 07:02:37;;;;;;;48.13;26.80;;;4.30;76.90;;;;;;5055792;28;20029;-18
2023/03/05 07:05:05;;;;;;;50.47;27.27;;;4.40;76.70;;;;;;5167251;22;20051;-17
2023/03/05 07:07:31;;;;;;;44.60;24.38;;;4.60;76.60;;;;;;5096350;28;20382;-15
2023/03/05 07:09:57;;;;;;;40.47;22.50;;;4.80;76.50;;;;;;5095921;28;20058;-16
2023/03/05 07:12:23;;;;;;;44.42;23.48;;;4.90;76.60;;;;;;5077565;28;20020;-16
2023/03/05 07:14:49;;;;;;;43.13;23.35;;;5.20;76.90;;;;;;5095860;28;20020;-17
2023/03/05 07:17:16;;;;;;;39.85;22.00;;;5.40;76.80;;;;;;5096334;28;20047;-17
2023/03/05 07:19:42;;;;;;;39.38;22.05;;;5.80;76.60;;;;;;5095651;28;20490;-17
2023/03/05 07:22:09;;;;;;;37.83;21.83;;;6.10;76.40;;;;;;5095647;28;20035;-16
2023/03/05 07:24:35;;;;;;;36.38;20.33;;;6.40;75.90;;;;;;5095974;28;20032;-16
2023/03/05 07:27:01;;;;;;;36.50;21.63;;;6.70;75.40;;;;;;5095700;28;20115;-17
2023/03/05 07:29:28;;;;;;;34.97;19.30;;;6.90;74.90;;;;;;5095604;28;20479;-17
2023/03/05 07:31:54;;;;;;;35.28;19.98;;;7.20;74.20;;;;;;5170898;22;20611;-17
2023/03/05 07:34:21;;;;;;;31.40;18.48;;;7.50;73.20;;;;;;5095414;28;20123;-17
2023/03/05 07:36:53;;;;;;;31.67;18.08;;;7.80;72.90;;;;;;5094970;28;20043;-19
2023/03/05 07:39:19;;;;;;;28.05;17.08;;;8.20;72.30;;;;;;5095442;28;20019;-17
2023/03/05 07:41:46;;;;;;;32.67;18.08;;;8.40;71.70;;;;;;5094984;28;20024;-16
2023/03/05 07:44:12;;;;;;;29.58;16.88;;;8.80;71.00;;;;;;5095388;28;20028;-17
2023/03/05 07:46:41;;;;;;;32.15;18.25;;;9.00;70.50;;;;;;5095069;28;20517;-16
2023/03/05 07:49:07;;;;;;;42.20;22.63;;;9.40;70.00;;;;;;5148361;22;20423;-16
2023/03/05 07:51:33;;;;;;;30.92;18.40;;;9.50;69.30;;;;;;5095398;28;20028;-17
2023/03/05 07:53:59;;;;;;;33.03;18.30;;;9.70;68.50;;;;;;5094146;28;20028;-18
2023/03/05 07:56:34;;;;;;;28.48;16.08;;;9.70;68.00;;;;;;5095015;28;20426;-17
2023/03/05 07:59:18;;;;;;;30.33;16.60;;;9.70;68.10;;;;;;5094805;28;20046;-17
2023/03/05 08:01:45;;;;;;;29.20;17.48;;;9.90;67.80;;;;;;5095250;28;20055;-16
2023/03/05 08:04:11;;;;;;;29.27;16.40;;;10.00;67.30;;;;;;5095106;28;20427;-15
2023/03/05 08:06:40;;;;;;;27.70;16.48;;;10.10;67.20;;;;;;5095156;28;20028;-15
2023/03/05 08:09:06;;;;;;;24.50;14.93;;;10.10;67.00;;;;;;5094833;28;20063;-14
2023/03/05 08:11:32;;;;;;;25.17;13.93;;;10.20;67.10;;;;;;5095188;28;20051;-12
2023/03/05 08:13:59;;;;;;;31.83;17.02;;;10.40;66.40;;;;;;5076470;28;20028;-16
2023/03/05 08:16:25;;;;;;;28.48;16.35;;;10.70;66.10;;;;;;5094591;28;20073;-16
2023/03/05 08:18:55;;;;;;;27.10;14.63;;;10.90;65.80;;;;;;5094440;28;20351;-16
2023/03/05 08:21:32;;;;;;;22.70;14.02;;;11.00;65.10;;;;;;5094605;28;20027;-16
2023/03/05 08:24:00;;;;;;;23.45;13.60;;;11.20;64.50;;;;;;5094280;28;20032;-16
2023/03/05 08:26:29;;;;;;;25.10;13.27;;;11.20;63.60;;;;;;5094221;28;20024;-16
2023/03/05 08:28:55;;;;;;;19.60;11.73;;;11.20;63.00;;;;;;5094112;28;20501;-15
2023/03/05 08:31:24;;;;;;;20.05;12.30;;;11.10;62.80;;;;;;5094415;28;20020;-16
2023/03/05 08:33:51;;;;;;;24.52;13.10;;;11.20;63.50;;;;;;5093949;28;20110;-17
2023/03/05 08:36:17;;;;;;;20.42;11.93;;;11.40;62.00;;;;;;5094064;28;20025;-17
2023/03/05 08:38:45;;;;;;;22.08;12.70;;;11.50;60.70;;;;;;5093721;28;20031;-15
2023/03/05 08:41:11;;;;;;;22.23;12.02;;;11.80;60.30;;;;;;5093867;28;20483;-14
2023/03/05 08:43:37;;;;;;;19.75;11.68;;;12.00;60.70;;;;;;5093995;28;20027;-16
2023/03/05 08:46:04;;;;;;;21.08;11.85;;;12.30;60.40;;;;;;5094111;28;20050;-17
2023/03/05 08:48:30;;;;;;;21.30;10.90;;;12.60;59.50;;;;;;5093429;28;20044;-16
2023/03/05 08:50:57;;;;;;;20.98;11.95;;;12.90;58.60;;;;;;5093633;28;20511;-15
2023/03/05 08:53:23;;;;;;;19.75;11.70;;;13.10;57.50;;;;;;5093771;28;20047;-16
2023/03/05 08:55:56;;;;;;;19.63;11.20;;;13.40;57.60;;;;;;5093868;28;20046;-13
2023/03/05 08:58:23;;;;;;;16.80;10.67;;;13.60;55.00;;;;;;5093565;28;20028;-15
2023/03/05 09:00:50;;;;;;;20.17;9.85;;;13.90;54.90;;;;;;5093396;28;20360;-13
2023/03/05 09:03:16;;;;;;;18.80;10.30;;;14.10;53.70;;;;;;5093497;28;20082;-17
2023/03/05 09:05:42;;;;;;;19.33;10.82;;;14.40;51.50;;;;;;5093273;28;20125;-15
2023/03/05 09:08:07;;;;;;;20.88;11.00;;;14.50;50.40;;;;;;5093599;28;20096;-13
2023/03/05 09:10:33;;;;;;;19.48;10.27;;;14.50;48.70;;;;;;5093566;28;20409;-16
2023/03/05 09:12:59;;;;;;;18.10;9.95;;;14.40;49.10;;;;;;5093293;28;20023;-16
2023/03/05 09:15:25;;;;;;;20.90;11.35;;;14.30;50.10;;;;;;5093817;28;20031;-18
2023/03/05 09:17:51;;;;;;;19.55;11.50;;;14.20;47.40;;;;;;5093614;28;20387;-15
2023/03/05 09:20:17;;;;;;;22.42;13.65;;;14.10;49.40;;;;;;5093298;28;20028;-16
2023/03/05 09:22:43;;;;;;;27.17;12.98;;;14.20;47.90;;;;;;5093134;28;20043;-16
2023/03/05 09:25:11;;;;;;;22.00;12.68;;;14.30;49.80;;;;;;5093772;28;20016;-16
2023/03/05 09:27:37;;;;;;;19.98;11.75;;;14.50;50.00;;;;;;5093405;28;20097;-15
2023/03/05 09:30:05;;;;;;;23.15;13.52;;;14.70;49.30;;;;;;5093637;28;20063;-15
2023/03/05 09:32:31;;;;;;;21.98;12.82;;;14.90;47.30;;;;;;5093319;28;20095;-14
2023/03/05 09:34:57;;;;;;;23.70;14.30;;;15.00;47.90;;;;;;5093273;28;20028;-17
2023/03/05 09:37:24;;;;;;;21.95;12.75;;;15.10;47.90;;;;;;5093199;28;20020;-14
2023/03/05 09:39:50;;;;;;;25.30;13.73;;;15.20;48.80;;;;;;5093452;28;20020;-17
2023/03/05 09:42:33;;;;;;;23.33;13.43;;;15.30;48.30;;;;;;5093120;28;20046;-16
2023/03/05 09:45:16;;;;;;;27.60;13.43;;;15.40;47.30;;;;;;5093166;28;20132;-16
2023/03/05 09:48:03;;;;;;;23.52;13.45;;;15.50;47.10;;;;;;5093284;28;20024;-16
2023/03/05 09:50:38;;;;;;;24.23;14.40;;;15.40;48.00;;;;;;5093357;28;20028;-14
2023/03/05 09:53:13;;;;;;;24.58;15.15;;;15.30;46.50;;;;;;5092994;28;20438;-16
2023/03/05 09:55:43;;;;;;;22.80;14.52;;;15.40;47.70;;;;;;5093209;28;20028;-13
2023/03/05 09:58:37;;;;;;;26.02;14.05;;;15.30;47.90;;;;;;5092882;28;20026;-15
2023/03/05 10:01:12;;;;;;;22.17;13.07;;;15.40;48.30;;;;;;5081257;28;20040;-13
2023/03/05 10:04:03;;;;;;;25.35;15.10;;;15.50;49.20;;;;;;5092420;28;20127;-15
2023/03/05 10:06:46;;;;;;;24.45;13.73;;;15.70;47.10;;;;;;5092671;28;20027;-18
2023/03/05 10:09:23;;;;;;;26.25;14.68;;;15.80;48.00;;;;;;5092917;28;20107;-15
2023/03/05 10:11:48;;;;;;;24.95;13.77;;;16.10;48.40;;;;;;5092562;28;20032;-16
2023/03/05 10:14:19;;;;;;;31.65;15.73;;;16.30;47.50;;;;;;5092382;28;20027;-15
2023/03/05 10:16:58;;;;;;;27.05;14.90;;;16.50;44.40;;;;;;5091543;28;20024;-16
2023/03/05 10:20:03;;;;;;;23.30;13.73;;;16.50;46.60;;;;;;5092363;28;20069;-16
2023/03/05 10:22:49;;;;;;;27.60;15.88;;;16.80;45.40;;;;;;5092225;28;20042;-16
2023/03/05 10:25:48;;;;;;;24.83;15.52;;;17.10;43.10;;;;;;5092584;28;20020;-14
2023/03/05 10:28:18;;;;;;;21.85;13.40;;;17.30;43.80;;;;;;5092604;28;20126;-15
2023/03/05 10:31:04;;;;;;;23.05;13.55;;;17.30;45.00;;;;;;5092293;28;20465;-13
2023/03/05 10:33:47;;;;;;;26.40;15.98;;;17.40;45.00;;;;;;5092598;28;20020;-14
2023/03/05 10:36:44;;;;;;;33.05;17.98;;;17.50;42.60;;;;;;5171161;22;20147;-17
2023/03/05 10:39:19;;;;;;;30.73;18.25;;;17.50;43.30;;;;;;5062576;28;20484;-16
2023/03/05 10:42:05;;;;;;;29.50;17.10;;;17.40;44.10;;;;;;5072044;28;20040;-17
2023/03/05 10:44:31;;;;;;;26.48;16.00;;;17.50;44.60;;;;;;5072280;28;20018;-17
2023/03/05 10:46:59;;;;;;;28.67;17.05;;;17.70;44.00;;;;;;5071881;28;20093;-17
2023/03/05 10:49:36;;;;;;;26.98;15.88;;;17.90;43.80;;;;;;5071970;28;20078;-16
2023/03/05 10:52:14;;;;;;;28.52;17.30;;;18.40;41.90;;;;;;5071972;28;20059;-16
2023/03/05 10:54:41;;;;;;;26.58;16.25;;;18.80;41.60;;;;;;5071777;28;20052;-16
2023/03/05 10:57:26;;;;;;;31.67;17.75;;;18.90;40.90;;;;;;5071929;28;20056;-17
2023/03/05 11:00:07;;;;;;;29.58;18.17;;;19.10;39.50;;;;;;5072269;28;20020;-15
2023/03/05 11:02:51;;;;;;;24.45;15.73;;;19.10;40.40;;;;;;5071724;28;20067;-16
2023/03/05 11:05:40;;;;;;;30.08;18.08;;;19.20;41.40;;;;;;5167108;22;20044;-18
2023/03/05 11:08:35;;;;;;;26.05;16.55;;;19.60;40.90;;;;;;5081103;28;20051;-17
2023/03/05 11:11:13;;;;;;;31.20;17.48;;;19.70;39.00;;;;;;5009781;28;20034;-18
2023/03/05 11:13:59;;;;;;;29.00;17.20;;;19.90;40.90;;;;;;5086851;22;20527;-17
2023/03/05 11:16:46;;;;;;;26.83;17.55;;;20.30;38.60;;;;;;5072066;28;20025;-15
2023/03/05 11:19:31;;;;;;;28.77;17.70;;;20.50;38.10;;;;;;5072178;28;20024;-17
2023/03/05 11:22:14;;;;;;;33.15;20.02;;;20.60;38.40;;;;;;5071789;28;20035;-15
2023/03/05 11:24:40;;;;;;;29.13;19.27;;;20.80;37.50;;;;;;5071673;28;20060;-16
2023/03/05 11:27:28;;;;;;;27.48;18.00;;;20.70;38.50;;;;;;5072812;28;20032;-17
2023/03/05 11:29:54;;;;;;;34.03;20.15;;;20.60;37.50;;;;;;5075152;28;20387;-15
2023/03/05 11:32:24;;;;;;;29.20;17.95;;;20.70;38.40;;;;;;5075254;28;20021;-15
2023/03/05 11:34:51;;;;;;;26.65;18.13;;;20.90;38.50;;;;;;5074830;28;20479;-15
2023/03/05 11:37:31;;;;;;;32.92;19.83;;;21.40;36.40;;;;;;5075603;28;20021;-15
2023/03/05 11:40:20;;;;;;;30.58;18.63;;;21.70;36.00;;;;;;5075097;28;20032;-15
2023/03/05 11:42:54;;;;;;;27.08;17.15;;;21.90;35.60;;;;;;5074687;28;20395;-15
2023/03/05 11:45:21;;;;;;;28.33;18.58;;;22.00;36.30;;;;;;5075302;28;20025;-17
2023/03/05 11:47:50;;;;;;;26.05;17.85;;;21.90;35.90;;;;;;5074963;28;20036;-15
2023/03/05 11:50:31;;;;;;;29.48;18.90;;;22.00;36.10;;;;;;5075179;28;20032;-17
2023/03/05 11:53:06;;;;;;;27.75;18.65;;;22.30;35.80;;;;;;5074560;28;20395;-16
2023/03/05 11:55:50;;;;;;;27.35;18.38;;;22.60;34.30;;;;;;5074724;28;20480;-15
2023/03/05 11:58:19;;;;;;;30.20;19.52;;;22.80;34.10;;;;;;5074896;28;20024;-14
2023/03/05 12:00:46;;;;;;;25.27;16.05;;;22.90;33.90;;;;;;5074581;28;20109;-16
2023/03/05 12:03:16;;;;;;;34.35;21.65;;;22.70;35.00;;;;;;5074500;28;20028;-15
2023/03/05 12:05:48;;;;;;;28.58;17.35;;;22.50;35.40;;;;;;5074495;28;20029;-17
2023/03/05 12:08:24;;;;;;;26.95;17.52;;;22.50;35.90;;;;;;5074596;28;20031;-17
2023/03/05 12:10:51;;;;;;;30.90;20.88;;;22.70;35.20;;;;;;5074487;28;20029;-15
2023/03/05 12:13:20;;;;;;;33.83;22.35;;;22.90;35.10;;;;;;5074064;28;20039;-15
2023/03/05 12:15:54;;;;;;;34.13;22.98;;;22.80;35.10;;;;;;5074476;28;20372;-15
2023/03/05 12:18:33;;;;;;;34.22;22.33;;;22.80;34.40;;;;;;5074275;28;20090;-17
2023/03/05 12:21:01;;;;;;;26.67;17.92;;;22.60;34.10;;;;;;5074194;28;20050;-14
2023/03/05 12:23:27;;;;;;;25.60;17.70;;;22.60;34.90;;;;;;5074433;28;20024;-15
2023/03/05 12:25:56;;;;;;;28.40;19.15;;;22.80;35.10;;;;;;5074138;28;20376;-16
2023/03/05 12:28:31;;;;;;;28.63;19.63;;;23.10;35.30;;;;;;5073869;28;20108;-15
2023/03/05 12:31:00;;;;;;;34.47;22.52;;;23.40;34.10;;;;;;5073782;28;20025;-13
2023/03/05 12:33:36;;;;;;;31.98;21.33;;;23.40;34.10;;;;;;5074213;28;20047;-15
2023/03/05 12:36:19;;;;;;;29.45;20.17;;;23.60;33.60;;;;;;5074024;28;20128;-15
2023/03/05 12:38:52;;;;;;;37.40;24.42;;;23.70;33.20;;;;;;5072796;28;20029;-16
2023/03/05 12:41:21;;;;;;;34.42;23.92;;;23.70;33.00;;;;;;5074052;28;20095;-15
2023/03/05 12:44:05;;;;;;;31.77;20.58;;;23.70;33.90;;;;;;5073972;28;20103;-17
2023/03/05 12:46:34;;;;;;;33.85;23.05;;;23.60;34.30;;;;;;5073730;28;20071;-16
2023/03/05 12:49:22;;;;;;;28.70;19.30;;;23.70;34.50;;;;;;5073436;28;20483;-16
2023/03/05 12:51:53;;;;;;;37.33;23.73;;;23.90;34.50;;;;;;5073495;28;20028;-15
2023/03/05 12:54:31;;;;;;;28.25;20.13;;;24.10;34.30;;;;;;5073761;28;20029;-15